Gluckstadt, Mississippi
Current Conditions -  °F | °C
As of 9:53 AM on Friday 24 Oct 2014 (Local Time) from KHKS Reporting Station
Clear Clear  
Wind Chill: 61°   Ceiling: Unl
Heat Index: 61°   Visibility: 10mi
Dew Point: 49°   Wind: 3mph
Humidity: 64%   Direction: 40°NE
Pressure: 30.15"   Gusts: NA
Location:  32.5032°N, 90.1424°W
Report Text: KHKS 241453Z 04003KT 10SM CLR 16/09 A3015 RMK AO2 SLP205 T01610094 50008
Loading
Personal Weather Stations






























Interactive Weather Map New forecast layout! Learn more

10-Day Weather Forecast

Advertisements
Track Severe Weather on mobile